Time;durP1;ratioP1;P1;durP2;ratioP2;P2;SDS_P1;SDS_P2;PMS_P1;PMS_P2;Temp;Humidity;BMP_temperature;BMP_pressure;BME280_temperature;BME280_humidity;BME280_pressure;Samples;Min_cycle;Max_cycle;Signal;HPM_P1;HPM_P2
2022/11/23 00:01:37;;;;;;;27.77;12.77;;;10.70;99.90;;;10.87;99.58;99322.97;5114998;28;20046;-66
2022/11/23 00:04:09;;;;;;;24.80;13.10;;;10.70;99.90;;;10.84;99.94;99353.00;5114955;28;20067;-67
2022/11/23 00:06:37;;;;;;;21.98;12.73;;;10.70;99.90;;;10.85;100.00;99317.72;5114668;28;20052;-67
2022/11/23 00:09:06;;;;;;;29.30;13.27;;;10.70;99.90;;;10.88;100.00;99337.91;5114823;28;20051;-67
2022/11/23 00:11:36;;;;;;;21.60;12.50;;;10.70;99.90;;;10.63;100.00;99292.84;5114813;28;20074;-67
2022/11/23 00:14:05;;;;;;;25.77;13.73;;;10.70;99.90;;;10.93;100.00;99341.28;5114776;28;20130;-67
2022/11/23 00:16:33;;;;;;;28.17;14.00;;;10.70;99.90;;;10.98;100.00;99349.94;5114726;28;20043;-67
2022/11/23 00:19:02;;;;;;;21.15;12.52;;;10.70;99.90;;;10.75;99.91;99310.09;5114949;28;20052;-67
2022/11/23 00:21:32;;;;;;;23.45;12.38;;;10.80;99.90;;;11.00;99.53;99345.47;5114898;28;20039;-67
2022/11/23 00:24:01;;;;;;;22.33;12.07;;;10.80;99.90;;;10.93;99.43;99333.38;5115131;28;20047;-67
2022/11/23 00:26:31;;;;;;;22.65;11.73;;;10.80;99.90;;;10.98;99.33;99341.13;5114655;28;20054;-66
2022/11/23 00:29:00;;;;;;;18.40;11.63;;;10.80;99.90;;;10.97;99.43;99342.94;5114501;28;20126;-67
2022/11/23 00:31:29;;;;;;;21.30;11.40;;;10.80;99.90;;;10.94;99.49;99361.53;5114670;28;20435;-67
2022/11/23 00:33:58;;;;;;;23.88;12.50;;;10.70;99.90;;;10.93;99.66;99353.66;5096370;28;20042;-67
2022/11/23 00:36:28;;;;;;;24.47;13.27;;;10.70;99.90;;;10.95;99.84;99354.47;5114908;28;20119;-66
2022/11/23 00:38:56;;;;;;;23.35;13.68;;;10.70;99.90;;;10.77;100.00;99337.38;5114516;28;20626;-67
2022/11/23 00:41:27;;;;;;;23.02;14.18;;;10.80;99.90;;;11.01;99.95;99357.81;5096159;28;20150;-67
2022/11/23 00:43:55;;;;;;;25.33;15.73;;;10.80;99.90;;;10.93;100.00;99358.94;5114530;28;20115;-66
2022/11/23 00:46:27;;;;;;;26.05;16.00;;;10.80;99.90;;;10.88;100.00;99336.13;5113538;28;20050;-67
2022/11/23 00:48:57;;;;;;;25.33;15.00;;;10.80;99.90;;;11.05;100.00;99356.81;5114368;28;20382;-66
2022/11/23 00:51:28;;;;;;;32.15;15.98;;;10.90;99.90;;;10.88;100.00;99343.19;5114385;28;20093;-67
2022/11/23 00:53:58;;;;;;;23.85;15.15;;;10.90;99.90;;;10.81;100.00;99325.78;5114262;28;20477;-66
2022/11/23 00:56:28;;;;;;;28.55;16.27;;;10.80;99.90;;;10.74;100.00;99334.84;5096010;28;20052;-67
2022/11/23 00:58:58;;;;;;;25.85;15.60;;;10.70;99.90;;;10.86;100.00;99352.94;5095943;28;20077;-66
2022/11/23 01:01:32;;;;;;;28.40;16.98;;;10.70;99.90;;;10.91;100.00;99356.34;5096018;28;20138;-67
2022/11/23 01:04:04;;;;;;;27.92;15.43;;;10.70;99.90;;;10.87;100.00;99358.22;5095899;28;20073;-67
2022/11/23 01:06:35;;;;;;;30.70;16.63;;;10.70;99.90;;;10.79;100.00;99339.06;5095832;28;20044;-66
2022/11/23 01:09:08;;;;;;;27.58;15.95;;;10.70;99.90;;;10.95;100.00;99360.63;5113814;28;20036;-67
2022/11/23 01:11:36;;;;;;;30.88;16.35;;;10.80;99.90;;;10.93;100.00;99354.53;5113901;28;20458;-67
2022/11/23 01:14:04;;;;;;;28.55;15.68;;;10.80;99.90;;;10.97;100.00;99368.50;5095687;28;20043;-68
2022/11/23 01:16:37;;;;;;;29.48;16.00;;;10.80;99.90;;;10.96;100.00;99357.06;5095623;28;20138;-67
2022/11/23 01:19:09;;;;;;;34.28;15.75;;;10.80;99.90;;;10.86;100.00;99345.03;5113591;28;20442;-67
2022/11/23 01:21:38;;;;;;;24.02;13.82;;;10.80;99.90;;;11.00;100.00;99356.06;5113614;28;20047;-67
2022/11/23 01:24:09;;;;;;;29.55;13.65;;;10.80;99.90;;;11.02;100.00;99362.16;5113644;28;20032;-67
2022/11/23 01:26:38;;;;;;;29.13;13.40;;;10.80;99.90;;;10.94;99.87;99360.69;5113506;28;20035;-67
2022/11/23 01:29:07;;;;;;;23.08;12.35;;;10.80;99.90;;;10.97;99.82;99373.81;5113533;28;20047;-67
2022/11/23 01:31:40;;;;;;;22.65;12.10;;;10.80;99.90;;;10.94;99.59;99352.75;5095531;28;20052;-67
2022/11/23 01:34:16;;;;;;;25.02;11.40;;;10.80;99.90;;;11.03;99.26;99376.28;5113547;28;20464;-67
2022/11/23 01:36:45;;;;;;;25.08;12.23;;;10.80;99.90;;;11.06;99.03;99368.22;5113486;28;20409;-67
2022/11/23 01:39:13;;;;;;;23.50;12.23;;;10.80;99.90;;;11.05;99.09;99385.03;5113671;28;20044;-68
2022/11/23 01:41:44;;;;;;;23.58;11.35;;;10.80;99.90;;;10.99;98.85;99375.50;5095386;28;20043;-67
2022/11/23 01:44:29;;;;;;;20.80;10.73;;;10.80;99.90;;;10.99;99.03;99377.28;5113597;28;20465;-67
2022/11/23 01:47:01;;;;;;;18.92;10.85;;;10.80;99.90;;;10.97;98.99;99379.09;5095289;28;20050;-67
2022/11/23 01:49:35;;;;;;;20.98;10.25;;;10.70;99.90;;;10.94;98.92;99381.84;5095356;28;20382;-67
2022/11/23 01:52:08;;;;;;;19.80;9.93;;;10.70;99.90;;;10.83;98.92;99382.16;5112268;28;20047;-67
2022/11/23 01:54:41;;;;;;;21.08;9.48;;;10.70;99.90;;;10.68;98.98;99366.75;5113538;28;20444;-67
2022/11/23 01:57:17;;;;;;;22.05;9.73;;;10.70;99.90;;;10.79;99.20;99380.50;5113269;28;20086;-67
2022/11/23 01:59:46;;;;;;;18.48;8.57;;;10.60;99.90;;;10.68;99.18;99366.75;5098041;28;20055;-67
2022/11/23 02:02:17;;;;;;;21.10;9.32;;;10.60;99.90;;;10.65;99.12;99348.31;5117537;28;20039;-67
2022/11/23 02:04:50;;;;;;;24.23;9.13;;;10.60;99.90;;;10.76;99.21;99383.25;5117268;28;20415;-67
2022/11/23 02:07:19;;;;;;;16.58;9.35;;;10.60;99.90;;;10.75;99.46;99385.03;5098954;28;20129;-67
2022/11/23 02:09:49;;;;;;;19.15;10.43;;;10.60;99.90;;;10.61;99.09;99368.69;5099130;28;20047;-67
2022/11/23 02:12:17;;;;;;;18.00;9.65;;;10.60;99.90;;;10.62;99.44;99359.84;5099017;28;20050;-67
2022/11/23 02:14:46;;;;;;;23.20;12.05;;;10.50;99.90;;;10.65;99.46;99382.66;5117389;28;20040;-67
2022/11/23 02:17:16;;;;;;;19.70;11.13;;;10.50;99.90;;;10.64;99.75;99381.81;5098992;28;20051;-67
2022/11/23 02:19:55;;;;;;;20.43;10.63;;;10.50;99.90;;;10.59;99.68;99391.66;5098918;28;20048;-67
2022/11/23 02:22:31;;;;;;;20.88;12.20;;;10.40;99.90;;;10.57;99.80;99385.53;5098560;28;20043;-67
2022/11/23 02:25:02;;;;;;;23.23;12.35;;;10.40;99.90;;;10.55;100.00;99390.00;5117134;28;20047;-67
2022/11/23 02:27:32;;;;;;;21.75;13.20;;;10.40;99.90;;;10.54;100.00;99380.34;5098771;28;20047;-67
2022/11/23 02:30:02;;;;;;;21.25;11.85;;;10.40;99.90;;;10.54;100.00;99384.75;5098762;28;20142;-67
2022/11/23 02:32:32;;;;;;;19.80;12.25;;;10.40;99.90;;;10.51;100.00;99383.06;5117033;28;20039;-67
2022/11/23 02:35:01;;;;;;;19.70;12.50;;;10.40;99.90;;;10.54;100.00;99385.63;5116967;28;20079;-67
2022/11/23 02:37:29;;;;;;;18.25;13.10;;;10.30;99.90;;;10.35;100.00;99370.34;5116943;28;20039;-67
2022/11/23 02:40:04;;;;;;;25.00;15.38;;;10.40;99.90;;;10.41;100.00;99380.75;5116888;28;20051;-67
2022/11/23 02:42:38;;;;;;;17.98;13.98;;;10.30;99.90;;;10.42;100.00;99380.69;5098582;28;20427;-67
2022/11/23 02:45:16;;;;;;;22.60;15.63;;;10.20;99.90;;;10.43;100.00;99386.84;5116578;28;20040;-67
2022/11/23 02:47:44;;;;;;;22.55;16.30;;;10.30;99.90;;;9.79;100.00;99288.16;5116388;28;20481;-67
2022/11/23 02:50:31;;;;;;;22.23;15.50;;;10.30;99.90;;;10.46;100.00;99392.03;5098418;28;20058;-67
2022/11/23 02:53:00;;;;;;;21.83;14.85;;;10.20;99.90;;;10.42;100.00;99400.94;5116705;28;20435;-67
2022/11/23 02:55:32;;;;;;;21.88;14.05;;;10.30;99.90;;;10.47;100.00;99396.44;5098332;28;20043;-67
2022/11/23 02:58:04;;;;;;;20.35;13.45;;;10.30;99.90;;;10.52;100.00;99403.31;5098334;28;20086;-67
2022/11/23 03:00:32;;;;;;;;;;;10.30;99.90;;;10.48;100.00;99388.44;5098739;28;20401;-67
2022/11/23 03:03:02;;;;;;;18.63;13.65;;;10.40;99.90;;;10.38;100.00;99365.81;5098101;28;19923;-67
2022/11/23 03:05:30;;;;;;;16.40;12.70;;;10.40;99.90;;;10.47;100.00;99394.63;5115935;28;20075;-67
2022/11/23 03:08:03;;;;;;;14.57;13.07;;;10.40;99.90;;;10.55;100.00;99392.63;5094381;28;20071;-67
2022/11/23 03:10:32;;;;;;;15.75;13.25;;;10.40;99.90;;;10.43;100.00;99377.13;5094109;28;20484;-67
2022/11/23 03:13:02;;;;;;;16.05;12.25;;;10.40;99.90;;;10.52;100.00;99389.22;5094635;28;20040;-67
2022/11/23 03:15:35;;;;;;;16.50;12.75;;;10.40;99.90;;;10.55;100.00;99390.00;5095894;28;20040;-67
2022/11/23 03:18:05;;;;;;;14.50;12.48;;;10.40;99.90;;;10.62;100.00;99390.72;5094578;28;20082;-66
2022/11/23 03:20:35;;;;;;;14.95;12.15;;;10.40;99.90;;;8.85;100.00;99105.13;5094688;28;20040;-67
2022/11/23 03:23:04;;;;;;;18.73;12.07;;;10.40;99.90;;;10.54;100.00;99393.56;5094379;28;20170;-67
2022/11/23 03:25:33;;;;;;;14.98;11.85;;;10.50;99.90;;;10.58;100.00;99397.00;5094379;28;20436;-67
2022/11/23 03:28:03;;;;;;;16.55;13.07;;;10.40;99.90;;;10.54;100.00;99390.06;5094453;28;20463;-67
2022/11/23 03:30:33;;;;;;;16.02;12.00;;;10.40;99.90;;;10.62;100.00;99403.94;5095556;28;20048;-67
2022/11/23 03:33:03;;;;;;;15.10;12.40;;;10.40;99.90;;;10.61;100.00;99392.47;5094260;28;20048;-67
2022/11/23 03:35:31;;;;;;;19.85;13.55;;;10.40;99.90;;;10.65;100.00;99409.13;5094004;28;20052;-66
2022/11/23 03:38:15;;;;;;;18.70;12.70;;;10.50;99.90;;;10.56;100.00;99430.53;5094179;28;20075;-67
2022/11/23 03:40:45;;;;;;;18.35;13.85;;;10.40;99.90;;;10.63;100.00;99410.94;5094022;28;20059;-67
2022/11/23 03:43:21;;;;;;;14.55;12.25;;;10.40;99.90;;;10.64;100.00;99420.63;5094091;28;20370;-67
2022/11/23 03:45:50;;;;;;;17.40;12.63;;;10.50;99.90;;;10.64;100.00;99418.84;5093925;28;20054;-67
2022/11/23 03:48:19;;;;;;;16.35;12.32;;;10.50;99.90;;;10.63;100.00;99403.88;5093442;28;20071;-66
2022/11/23 03:50:48;;;;;;;17.20;12.48;;;10.50;99.90;;;10.64;100.00;99408.28;5093844;28;20044;-67
2022/11/23 03:53:17;;;;;;;18.80;12.20;;;10.50;99.90;;;10.62;100.00;99419.78;5093706;28;20142;-67
2022/11/23 03:55:47;;;;;;;16.02;12.55;;;10.50;99.90;;;10.52;100.00;99389.22;5095067;28;20067;-67
2022/11/23 03:58:15;;;;;;;20.33;12.73;;;10.50;99.90;;;10.53;100.00;99381.25;5093665;28;20044;-67
2022/11/23 04:00:45;;;;;;;15.15;11.43;;;10.50;99.90;;;10.71;99.98;99408.94;5093646;28;20040;-67
2022/11/23 04:03:15;;;;;;;16.70;12.10;;;10.50;99.90;;;10.72;99.84;99415.97;5093369;28;20044;-67
2022/11/23 04:06:03;;;;;;;17.02;12.07;;;10.50;99.90;;;10.70;99.92;99397.50;5094645;28;20063;-67
2022/11/23 04:09:06;;;;;;;17.85;11.38;;;10.60;99.90;;;10.73;99.53;99417.69;5083384;28;20048;-67
2022/11/23 04:11:52;;;;;;;16.55;11.15;;;10.60;99.90;;;10.70;99.42;99396.66;5093556;28;20044;-67
2022/11/23 04:14:20;;;;;;;17.98;10.52;;;10.60;99.90;;;10.47;99.22;99373.47;5093322;28;20048;-67
2022/11/23 04:16:50;;;;;;;19.17;10.98;;;10.60;99.90;;;10.59;99.24;99396.06;5093333;28;20512;-67
2022/11/23 04:19:19;;;;;;;25.53;10.97;;;10.50;99.90;;;10.73;98.86;99405.34;5094603;28;20044;-67
2022/11/23 04:21:48;;;;;;;13.75;9.13;;;10.50;99.90;;;10.46;98.79;99384.09;5092354;28;20093;-67
2022/11/23 04:24:16;;;;;;;11.50;8.70;;;10.50;99.90;;;10.63;98.93;99408.28;5093507;28;20060;-67
2022/11/23 04:26:45;;;;;;;14.98;8.45;;;10.40;99.90;;;10.47;98.89;99372.63;5093118;28;20063;-67
2022/11/23 04:29:13;;;;;;;15.07;8.30;;;10.50;99.90;;;10.69;98.34;99405.47;5094345;28;20458;-67
2022/11/23 04:31:46;;;;;;;16.85;9.07;;;10.50;99.90;;;10.61;98.02;99410.09;5092775;28;20098;-67
2022/11/23 04:34:20;;;;;;;16.58;8.90;;;10.50;99.90;;;9.94;97.82;99287.78;5093043;28;20473;-67
2022/11/23 04:36:50;;;;;;;14.63;8.18;;;10.40;99.90;;;10.61;98.10;99397.75;5093308;28;20423;-67
2022/11/23 04:39:22;;;;;;;18.23;8.70;;;10.40;99.90;;;10.64;97.71;99402.97;5093007;28;20044;-67
2022/11/23 04:42:11;;;;;;;15.15;8.93;;;10.50;99.90;;;10.55;97.53;99392.63;5094235;28;20110;-67
2022/11/23 04:44:41;;;;;;;16.88;8.32;;;10.50;99.90;;;10.43;97.30;99358.63;5092850;28;20407;-67
2022/11/23 04:47:10;;;;;;;14.63;8.95;;;10.50;99.90;;;10.68;97.06;99390.53;5093836;28;20463;-67
2022/11/23 04:49:40;;;;;;;12.95;8.23;;;10.50;99.90;;;10.62;96.88;99396.88;5092656;28;20048;-67
2022/11/23 04:52:08;;;;;;;14.40;8.30;;;10.50;99.90;;;10.66;96.85;99408.22;5093736;28;20044;-67
2022/11/23 04:54:43;;;;;;;18.38;8.75;;;10.50;99.90;;;10.53;96.75;99394.47;5109968;28;20048;-67
2022/11/23 04:57:12;;;;;;;14.55;8.18;;;10.40;99.90;;;10.48;97.01;99393.72;5092716;28;20040;-67
2022/11/23 04:59:41;;;;;;;13.63;8.25;;;10.30;99.90;;;10.61;96.98;99405.69;5092323;28;20044;-67
2022/11/23 05:02:09;;;;;;;16.00;8.45;;;10.40;99.90;;;10.60;96.67;99405.75;5093862;28;20067;-67
2022/11/23 05:05:01;;;;;;;;;;;10.40;99.90;;;10.64;96.69;99408.28;5093738;28;20118;-67
2022/11/23 05:07:30;;;;;;;14.02;8.35;;;10.50;99.90;;;10.63;96.36;99409.16;5092305;28;19981;-67
2022/11/23 05:10:04;;;;;;;17.33;8.35;;;10.50;99.90;;;10.58;96.15;99418.13;5092416;28;20589;-67
2022/11/23 05:12:35;;;;;;;14.32;8.10;;;10.40;99.90;;;10.69;96.01;99416.06;5092398;28;20048;-67
2022/11/23 05:15:03;;;;;;;16.23;8.07;;;10.50;99.90;;;10.41;95.87;99357.81;5092333;28;20047;-67
2022/11/23 05:17:36;;;;;;;21.73;8.30;;;10.60;99.90;;;10.45;95.82;99366.53;5092418;28;20048;-67
2022/11/23 05:20:12;;;;;;;18.92;7.88;;;10.50;99.90;;;10.79;95.74;99409.59;5093643;28;20378;-67
2022/11/23 05:22:45;;;;;;;22.70;9.15;;;10.60;99.90;;;10.55;95.33;99410.31;5092322;28;20138;-67
2022/11/23 05:25:17;;;;;;;16.15;8.13;;;10.50;99.90;;;10.67;95.35;99402.00;5092312;28;20139;-67
2022/11/23 05:27:49;;;;;;;15.65;7.47;;;10.50;99.90;;;10.65;95.14;99406.47;5092238;28;20105;-67
2022/11/23 05:30:18;;;;;;;18.60;8.18;;;10.50;99.90;;;10.34;95.25;99360.66;5093274;28;20036;-67
2022/11/23 05:32:47;;;;;;;16.95;7.55;;;10.50;99.90;;;10.35;95.17;99362.41;5091917;28;20075;-67
2022/11/23 05:35:19;;;;;;;23.70;8.60;;;10.50;99.90;;;10.66;95.29;99411.75;5092076;28;20047;-67
2022/11/23 05:37:47;;;;;;;21.37;8.50;;;10.50;99.90;;;10.70;95.13;99415.16;5093306;28;20086;-67
2022/11/23 05:40:16;;;;;;;19.90;8.57;;;10.50;99.90;;;10.43;95.60;99392.13;5091902;28;20290;-67
2022/11/23 05:42:47;;;;;;;20.90;8.73;;;10.40;99.90;;;10.42;95.52;99416.81;5092158;28;20142;-68
2022/11/23 05:45:20;;;;;;;15.57;7.50;;;10.40;99.90;;;10.45;96.27;99416.75;5092015;28;20044;-66
2022/11/23 05:47:52;;;;;;;22.27;8.52;;;10.30;99.90;;;10.38;95.88;99417.81;5092133;28;20139;-67
2022/11/23 05:50:31;;;;;;;21.27;8.70;;;10.40;99.90;;;10.11;96.27;99389.47;5091587;28;20052;-67
2022/11/23 05:53:18;;;;;;;22.90;7.75;;;10.30;99.90;;;10.19;96.86;99420.06;5092972;28;20063;-67
2022/11/23 05:55:51;;;;;;;20.40;8.40;;;10.20;99.90;;;10.22;96.90;99419.13;5091940;28;20052;-67
2022/11/23 05:58:19;;;;;;;23.83;9.13;;;10.20;99.90;;;10.12;96.57;99413.22;5091889;28;20436;-67
2022/11/23 06:00:48;;;;;;;20.42;9.15;;;10.10;99.90;;;10.06;97.15;99407.19;5091586;28;20198;-67
2022/11/23 06:03:18;;;;;;;19.42;8.88;;;10.00;99.90;;;9.96;96.62;99407.44;5091907;28;20498;-67
2022/11/23 06:05:48;;;;;;;24.73;8.35;;;9.90;99.90;;;9.94;97.27;99403.09;5091765;28;20394;-67
2022/11/23 06:08:22;;;;;;;24.02;8.40;;;9.90;99.90;;;9.95;96.70;99399.53;5091437;28;20485;-67
2022/11/23 06:10:51;;;;;;;22.10;7.65;;;9.80;99.90;;;9.92;96.72;99402.25;5091422;28;20136;-67
2022/11/23 06:13:19;;;;;;;23.98;7.40;;;9.80;99.90;;;9.75;96.79;99402.69;5092985;28;20105;-67
2022/11/23 06:15:48;;;;;;;26.60;7.60;;;9.70;99.90;;;9.75;97.10;99405.34;5091707;28;20081;-67
2022/11/23 06:18:22;;;;;;;21.95;7.32;;;9.70;99.90;;;9.65;96.96;99426.69;5091680;28;20139;-67
2022/11/23 06:20:52;;;;;;;23.27;7.05;;;9.60;99.90;;;9.52;96.88;99402.38;5092735;28;20107;-67
2022/11/23 06:23:20;;;;;;;20.57;6.77;;;9.50;99.90;;;9.67;96.80;99415.22;5091654;28;20550;-66
2022/11/23 06:25:50;;;;;;;36.55;7.85;;;9.60;99.90;;;9.57;96.81;99396.97;5091620;28;20295;-67
2022/11/23 06:28:27;;;;;;;23.48;6.78;;;9.50;99.90;;;9.46;97.11;99384.06;5091614;28;20044;-67
2022/11/23 06:31:02;;;;;;;32.58;8.13;;;9.50;99.90;;;9.55;96.80;99410.22;5091311;28;20056;-67
2022/11/23 06:33:32;;;;;;;25.13;7.53;;;9.50;99.90;;;9.61;96.39;99399.53;5091559;28;20075;-67
2022/11/23 06:36:03;;;;;;;22.90;6.78;;;9.50;99.90;;;9.69;95.95;99408.13;5091495;28;20043;-67
2022/11/23 06:38:39;;;;;;;22.25;6.80;;;9.50;99.90;;;9.70;95.55;99415.13;5091521;28;20040;-67
2022/11/23 06:41:13;;;;;;;25.25;6.47;;;9.60;99.90;;;9.56;95.54;99392.63;5091504;28;20050;-67
2022/11/23 06:43:41;;;;;;;29.25;7.80;;;9.60;99.90;;;9.68;95.41;99405.50;5091280;28;20411;-67
2022/11/23 06:46:12;;;;;;;22.60;7.10;;;9.60;99.90;;;9.59;95.90;99401.31;5094342;28;20131;-66
2022/11/23 06:48:46;;;;;;;25.05;7.22;;;9.50;99.90;;;9.48;95.74;99384.91;5094885;28;20139;-67
2022/11/23 06:51:17;;;;;;;20.85;6.22;;;9.50;99.90;;;9.56;95.88;99414.59;5095064;28;20044;-66
2022/11/23 06:53:47;;;;;;;27.42;7.88;;;9.60;99.90;;;9.66;96.03;99434.56;5094904;28;20048;-67
2022/11/23 06:56:17;;;;;;;25.85;7.68;;;9.60;99.90;;;9.72;95.63;99433.56;5094527;28;20054;-66
2022/11/23 06:58:46;;;;;;;26.38;7.88;;;9.60;99.90;;;9.57;95.96;99400.50;5094516;28;20048;-66
2022/11/23 07:01:19;;;;;;;27.08;7.13;;;9.60;99.90;;;9.66;95.38;99424.03;5094835;28;20070;-66
2022/11/23 07:03:54;;;;;;;25.73;6.68;;;9.60;99.90;;;9.70;95.69;99435.38;5094792;28;20044;-66
2022/11/23 07:06:30;;;;;;;23.52;6.53;;;9.60;99.90;;;9.81;95.50;99439.47;5094760;28;20047;-66
2022/11/23 07:09:04;;;;;;;22.83;5.95;;;9.70;99.90;;;9.81;95.06;99446.56;5094626;28;20039;-66
2022/11/23 07:11:43;;;;;;;23.35;6.60;;;9.70;99.90;;;9.82;94.96;99435.97;5094573;28;20047;-66
2022/11/23 07:14:12;;;;;;;22.60;6.43;;;9.70;99.90;;;9.73;95.11;99438.84;5094484;28;20047;-66
2022/11/23 07:16:44;;;;;;;28.05;6.53;;;9.70;99.90;;;9.74;95.40;99437.91;5094241;28;20494;-66
2022/11/23 07:19:12;;;;;;;29.92;6.65;;;9.60;99.90;;;9.71;95.54;99440.63;5094494;28;20048;-66
2022/11/23 07:21:45;;;;;;;24.35;6.47;;;9.60;99.90;;;9.73;95.28;99459.94;5094509;28;20082;-66
2022/11/23 07:24:13;;;;;;;30.95;7.18;;;9.60;99.90;;;9.59;95.21;99429.47;5094463;28;20044;-67
2022/11/23 07:26:42;;;;;;;18.73;6.15;;;9.70;99.90;;;9.80;95.63;99458.88;5094221;28;20051;-66
2022/11/23 07:29:11;;;;;;;20.40;6.32;;;9.70;99.90;;;9.67;95.28;99428.41;5094144;28;20557;-66
2022/11/23 07:31:39;;;;;;;24.77;6.82;;;9.70;99.90;;;9.85;95.31;99457.00;5094155;28;20040;-66
2022/11/23 07:34:09;;;;;;;28.23;7.25;;;9.70;99.90;;;9.78;95.25;99471.25;5094430;28;20060;-66
2022/11/23 07:36:38;;;;;;;28.15;7.35;;;9.70;99.90;;;9.76;96.01;99466.91;5094192;28;20440;-66
2022/11/23 07:39:08;;;;;;;26.05;7.15;;;9.70;99.90;;;9.87;95.95;99465.75;5094028;28;20040;-66
2022/11/23 07:41:37;;;;;;;28.13;6.80;;;9.80;99.90;;;9.89;96.37;99477.13;5094135;28;20048;-67
2022/11/23 07:44:08;;;;;;;27.40;7.75;;;9.80;99.90;;;9.89;96.21;99503.53;5093955;28;20097;-66
2022/11/23 07:46:37;;;;;;;24.02;6.30;;;9.80;99.90;;;9.54;96.08;99441.94;5095228;28;20135;-67
2022/11/23 07:49:05;;;;;;;28.45;6.03;;;9.70;99.90;;;9.58;96.46;99452.38;5095188;28;20040;-67
2022/11/23 07:51:33;;;;;;;29.15;6.55;;;9.70;99.90;;;9.81;95.61;99500.22;5094914;28;20068;-66
2022/11/23 07:54:02;;;;;;;33.90;7.25;;;9.70;99.90;;;9.86;95.38;99494.84;5094689;28;20044;-65
2022/11/23 07:56:31;;;;;;;25.48;6.70;;;9.70;99.90;;;9.55;95.58;99438.38;5095206;28;20397;-66
2022/11/23 07:59:00;;;;;;;24.05;7.03;;;9.70;99.90;;;9.82;95.39;99504.59;5094736;28;20040;-66
2022/11/23 08:01:30;;;;;;;24.40;6.75;;;9.80;99.90;;;9.67;94.92;99480.34;5094672;28;20044;-66
2022/11/23 08:03:58;;;;;;;23.15;6.78;;;9.80;99.90;;;9.18;94.57;99419.88;5094662;28;20036;-66
2022/11/23 08:06:27;;;;;;;23.25;6.35;;;9.80;99.90;;;9.96;93.99;99509.56;5094452;28;20452;-66
2022/11/23 08:08:55;;;;;;;23.15;6.70;;;9.80;99.90;;;9.84;93.71;99507.19;5094739;28;20089;-66
2022/11/23 08:11:24;;;;;;;21.25;6.38;;;9.80;99.90;;;9.83;93.84;99494.94;5094409;28;20046;-66
2022/11/23 08:13:53;;;;;;;23.95;6.20;;;9.70;99.90;;;9.58;93.35;99462.06;5094486;28;20044;-66
2022/11/23 08:16:22;;;;;;;22.17;6.40;;;9.70;99.90;;;9.93;93.14;99499.94;5094627;28;20036;-67
2022/11/23 08:18:50;;;;;;;19.85;5.95;;;9.80;99.90;;;9.94;92.35;99488.47;5094477;28;20050;-66
2022/11/23 08:21:19;;;;;;;23.10;6.90;;;9.80;99.90;;;9.99;91.86;99497.16;5094123;28;20075;-67
2022/11/23 08:23:47;;;;;;;21.20;7.00;;;9.80;99.90;;;9.79;91.29;99453.66;5094247;28;20119;-66
2022/11/23 08:26:15;;;;;;;24.05;7.13;;;9.90;99.90;;;9.86;90.12;99490.44;5094748;28;20048;-66
2022/11/23 08:28:46;;;;;;;16.15;5.90;;;9.80;99.90;;;9.76;90.22;99491.53;5094230;28;20397;-66
2022/11/23 08:31:16;;;;;;;19.30;6.53;;;9.80;99.90;;;9.79;89.65;99472.97;5094049;28;20073;-66
2022/11/23 08:33:44;;;;;;;20.83;6.57;;;9.80;99.90;;;9.81;89.13;99502.84;5094422;28;20497;-66
2022/11/23 08:36:13;;;;;;;22.20;6.95;;;9.70;99.90;;;9.85;89.15;99498.41;5093950;28;20638;-66
2022/11/23 08:38:41;;;;;;;20.85;6.68;;;9.80;99.90;;;9.92;88.94;99499.97;5094181;28;20043;-66
2022/11/23 08:41:10;;;;;;;26.88;7.00;;;9.80;99.90;;;9.98;89.13;99500.72;5094011;28;20123;-66
2022/11/23 08:43:38;;;;;;;24.48;7.68;;;9.90;99.90;;;10.12;88.86;99478.41;5094466;28;20040;-66
2022/11/23 08:46:07;;;;;;;20.25;5.93;;;10.00;99.90;;;10.50;87.96;99479.16;5093812;28;20047;-66
2022/11/23 08:48:40;;;;;;;27.92;7.30;;;10.30;99.90;;;10.71;86.05;99482.97;5093863;28;20586;-65
2022/11/23 08:51:09;;;;;;;23.77;6.85;;;10.60;99.90;;;10.87;85.21;99485.19;5092660;28;20052;-66
2022/11/23 08:53:38;;;;;;;24.30;6.63;;;10.70;99.90;;;11.04;84.64;99462.66;5093901;28;20048;-66
2022/11/23 08:56:08;;;;;;;18.85;6.00;;;11.10;99.90;;;11.15;82.89;99469.38;5093748;28;20040;-66
2022/11/23 08:58:36;;;;;;;26.25;6.43;;;11.10;99.90;;;11.02;82.41;99515.63;5094113;28;20048;-66
2022/11/23 09:01:09;;;;;;;19.63;6.30;;;11.00;99.90;;;10.94;81.89;99485.84;5093792;28;20044;-67
2022/11/23 09:03:39;;;;;;;22.42;6.75;;;10.90;99.90;;;11.26;81.39;99477.88;5092619;28;20044;-66
2022/11/23 09:06:08;;;;;;;26.05;6.55;;;11.20;99.90;;;11.41;80.75;99463.31;5093514;28;20048;-66
2022/11/23 09:08:36;;;;;;;18.38;6.55;;;11.40;99.90;;;11.36;80.78;99446.72;5110998;28;20072;-66
2022/11/23 09:11:07;;;;;;;17.10;5.88;;;11.30;99.90;;;11.37;80.44;99459.88;5113657;28;20044;-64
2022/11/23 09:13:37;;;;;;;25.23;5.97;;;11.40;99.90;;;11.39;80.57;99447.47;5113779;28;20082;-66
2022/11/23 09:16:07;;;;;;;18.38;5.60;;;11.30;99.90;;;11.46;80.52;99435.78;5113853;28;20374;-66
2022/11/23 09:18:36;;;;;;;18.08;5.40;;;11.40;99.90;;;11.74;79.45;99438.47;5113662;28;20643;-66
2022/11/23 09:21:06;;;;;;;24.35;6.38;;;11.60;99.90;;;11.40;79.14;99465.06;5095528;28;20044;-65
2022/11/23 09:23:35;;;;;;;21.13;6.20;;;11.50;99.90;;;11.41;79.02;99423.59;5113635;28;20093;-66
2022/11/23 09:26:06;;;;;;;21.92;6.13;;;11.30;99.90;;;11.75;78.80;99427.81;5113474;28;20046;-66
2022/11/23 09:28:34;;;;;;;15.73;5.70;;;11.60;99.90;;;11.80;77.83;99417.06;5113877;28;20084;-66
2022/11/23 09:31:10;;;;;;;18.88;6.20;;;11.80;99.90;;;11.86;77.82;99413.34;5095458;28;20043;-66
2022/11/23 09:33:38;;;;;;;20.30;6.20;;;11.90;99.90;;;11.92;78.04;99414.03;5113376;28;20044;-65
2022/11/23 09:36:09;;;;;;;22.88;6.95;;;11.90;99.90;;;11.58;77.37;99423.94;5113421;28;20550;-66
2022/11/23 09:38:37;;;;;;;23.23;6.88;;;11.60;99.90;;;11.42;79.18;99394.41;5113391;28;20035;-66
2022/11/23 09:42:12;;;;;;;19.42;5.93;;;11.50;99.90;;;11.79;78.43;99415.31;5113452;28;20127;-66
2022/11/23 09:44:57;;;;;;;22.58;6.93;;;11.60;99.90;;;11.79;77.36;99421.50;5113352;28;20089;-66
2022/11/23 09:47:45;;;;;;;19.30;6.05;;;11.80;99.90;;;11.68;77.34;99439.53;5113373;28;20046;-66
2022/11/23 09:50:21;;;;;;;18.67;6.88;;;11.70;99.90;;;11.62;77.83;99438.81;5095322;28;20043;-66
2022/11/23 09:52:51;;;;;;;19.58;6.30;;;11.60;99.90;;;11.16;78.72;99438.50;5095283;28;20488;-64
2022/11/23 09:55:34;;;;;;;22.40;6.65;;;11.20;99.90;;;11.08;79.94;99448.44;5113559;28;20135;-66
2022/11/23 09:58:06;;;;;;;21.63;6.70;;;11.00;99.90;;;10.72;80.57;99453.00;5113319;28;20063;-66
2022/11/23 10:00:42;;;;;;;23.08;7.10;;;10.70;99.90;;;8.74;81.39;99164.28;5113522;28;20126;-66
2022/11/23 10:03:15;;;;;;;19.38;6.72;;;10.50;99.90;;;10.17;83.20;99445.66;5113501;28;20036;-66
2022/11/23 10:05:58;;;;;;;30.67;8.30;;;10.30;99.90;;;10.37;84.34;99450.44;5113110;28;20044;-65
2022/11/23 10:08:39;;;;;;;22.55;8.00;;;10.20;99.90;;;10.07;84.75;99459.97;5112937;28;20412;-66
2022/11/23 10:11:39;;;;;;;24.77;8.57;;;10.10;99.90;;;9.90;86.31;99476.25;5113333;28;20043;-66
2022/11/23 10:14:34;;;;;;;25.58;8.10;;;9.90;99.90;;;9.91;86.55;99445.44;5113109;28;20044;-66
2022/11/23 10:17:10;;;;;;;19.88;7.70;;;9.90;99.90;;;9.92;86.73;99444.53;5113009;28;20050;-66
2022/11/23 10:19:57;;;;;;;25.08;8.50;;;9.90;99.90;;;10.07;86.95;99441.50;5095758;28;20090;-66
2022/11/23 10:22:35;;;;;;;40.47;10.82;;;10.00;99.90;;;9.76;85.45;99430.81;5117095;28;20075;-67
2022/11/23 10:25:16;;;;;;;25.13;10.32;;;9.90;99.90;;;9.80;86.14;99450.97;5098872;28;20071;-66
2022/11/23 10:27:49;;;;;;;21.10;9.75;;;9.80;99.90;;;9.65;86.40;99421.44;5117021;28;20123;-67
2022/11/23 10:30:19;;;;;;;26.08;12.05;;;9.70;99.90;;;9.76;85.95;99457.22;5116908;28;20068;-67
2022/11/23 10:32:55;;;;;;;26.48;11.32;;;9.80;99.90;;;9.62;87.31;99432.91;5117111;28;20047;-68